Time;durP1;ratioP1;P1;durP2;ratioP2;P2;SDS_P1;SDS_P2;PMS_P1;PMS_P2;Temp;Humidity;BMP_temperature;BMP_pressure;BME280_temperature;BME280_humidity;BME280_pressure;Samples;Min_cycle;Max_cycle;Signal;HPM_P1;HPM_P2
2023/02/23 00:00:28;;;;;;;9.27;3.13;;;;;;;-11.25;61.81;99362.16;5069200;28;20031;-34
2023/02/23 00:02:57;;;;;;;9.02;3.38;;;;;;;-10.99;62.04;99402.66;5070731;28;20040;-36
2023/02/23 00:05:27;;;;;;;8.80;3.85;;;;;;;-10.99;61.98;99397.66;5068973;28;20119;-35
2023/02/23 00:07:54;;;;;;;8.68;3.30;;;;;;;-11.20;61.71;99375.78;5066603;28;20428;-35
2023/02/23 00:10:20;;;;;;;9.55;2.63;;;;;;;-11.13;61.65;99386.97;5068339;28;20087;-35
2023/02/23 00:12:50;;;;;;;10.25;4.47;;;;;;;-10.98;61.46;99412.75;5061476;28;20135;-35
2023/02/23 00:15:15;;;;;;;12.13;4.10;;;;;;;-11.01;61.47;99412.63;5063562;28;20127;-34
2023/02/23 00:17:41;;;;;;;10.20;3.88;;;;;;;-10.98;61.56;99409.38;5069161;28;20178;-35
2023/02/23 00:20:10;;;;;;;10.18;3.80;;;;;;;-10.93;61.85;99423.00;5071331;28;20047;-34
2023/02/23 00:22:40;;;;;;;10.40;4.13;;;;;;;-10.93;61.45;99420.50;5069302;28;20032;-35
2023/02/23 00:25:14;;;;;;;14.00;4.57;;;;;;;-10.94;61.70;99427.19;5068202;28;20044;-35
2023/02/23 00:27:44;;;;;;;8.18;3.45;;;;;;;-10.89;61.62;99427.41;5070633;28;20047;-34
2023/02/23 00:30:15;;;;;;;11.45;3.33;;;;;;;-10.86;61.40;99425.00;5063648;28;20585;-34
2023/02/23 00:32:41;;;;;;;11.77;4.07;;;;;;;-10.78;61.05;99428.75;5075655;28;20182;-34
2023/02/23 00:35:16;;;;;;;11.18;4.10;;;;;;;-10.75;61.40;99421.34;5072630;28;20130;-34
2023/02/23 00:37:44;;;;;;;11.88;4.28;;;;;;;-10.75;61.20;99432.25;5097274;27;20040;-35
2023/02/23 00:40:15;;;;;;;8.38;3.97;;;;;;;-10.77;61.20;99422.91;5049607;28;20416;-36
2023/02/23 00:42:44;;;;;;;12.35;4.47;;;;;;;-10.75;61.10;99431.38;5064430;28;20036;-35
2023/02/23 00:45:11;;;;;;;16.50;4.97;;;;;;;-10.76;60.88;99425.50;5058085;28;20093;-36
2023/02/23 00:47:42;;;;;;;9.85;3.63;;;;;;;-10.76;61.30;99430.50;5035137;28;20107;-34
2023/02/23 00:50:14;;;;;;;7.75;3.83;;;;;;;-10.96;61.49;99402.78;5063637;28;20481;-36
2023/02/23 00:52:41;;;;;;;6.85;3.53;;;;;;;-10.75;60.89;99428.88;5075790;28;20040;-34
2023/02/23 00:55:08;;;;;;;10.38;3.85;;;;;;;-11.04;60.80;99389.88;5070686;28;20044;-35
2023/02/23 00:57:34;;;;;;;9.27;3.80;;;;;;;-10.73;61.71;99442.38;5058984;28;20051;-35
2023/02/23 01:00:02;;;;;;;12.73;3.90;;;;;;;-10.76;61.42;99439.69;5089373;28;20032;-36
2023/02/23 01:02:29;;;;;;;7.82;3.33;;;;;;;-10.81;61.25;99446.16;5076137;28;20046;-34
2023/02/23 01:04:56;;;;;;;8.45;3.42;;;;;;;-10.82;60.95;99447.81;5085262;28;20037;-35
2023/02/23 01:07:24;;;;;;;13.15;4.43;;;;;;;-10.87;61.49;99444.22;5068742;28;20075;-35
2023/02/23 01:09:51;;;;;;;7.40;3.30;;;;;;;-10.91;61.20;99446.53;5067756;28;20055;-34
2023/02/23 01:12:16;;;;;;;17.35;3.88;;;;;;;-10.92;61.66;99455.72;5068074;28;20058;-35
2023/02/23 01:14:43;;;;;;;9.68;4.07;;;;;;;-10.94;61.41;99453.94;5061233;28;20507;-35
2023/02/23 01:17:10;;;;;;;7.35;3.00;;;;;;;-10.96;60.72;99438.78;5065203;28;20128;-38
2023/02/23 01:19:36;;;;;;;11.85;3.53;;;;;;;-11.00;61.00;99452.00;5050049;28;20037;-35
2023/02/23 01:22:02;;;;;;;7.05;3.05;;;;;;;-11.28;61.41;99408.84;5048931;28;20056;-35
2023/02/23 01:24:28;;;;;;;8.02;2.55;;;;;;;-11.04;61.00;99461.81;5068299;28;20452;-34
2023/02/23 01:26:54;;;;;;;15.93;4.28;;;;;;;-11.05;60.70;99450.94;5082371;28;20039;-35
2023/02/23 01:29:20;;;;;;;9.23;3.50;;;;;;;-11.07;61.19;99456.66;5066446;28;20064;-36
2023/02/23 01:31:47;;;;;;;8.45;3.53;;;;;;;-11.13;60.83;99453.84;5069162;28;20166;-35
2023/02/23 01:34:17;;;;;;;10.95;3.65;;;;;;;-11.19;60.98;99452.75;5071029;28;20219;-35
2023/02/23 01:36:44;;;;;;;12.35;3.85;;;;;;;-11.21;61.09;99451.84;5068818;28;20044;-34
2023/02/23 01:39:16;;;;;;;9.88;3.38;;;;;;;-11.22;61.17;99449.25;5102544;28;20043;-35
2023/02/23 01:41:42;;;;;;;14.52;3.25;;;;;;;-11.23;61.23;99447.53;5068588;28;20044;-35
2023/02/23 01:44:14;;;;;;;9.93;3.88;;;;;;;-11.22;61.39;99444.25;5083651;28;20040;-35
2023/02/23 01:46:43;;;;;;;9.40;3.28;;;;;;;-11.21;61.23;99444.31;5054478;28;20047;-35
2023/02/23 01:49:11;;;;;;;;;;;;;;;-11.14;61.40;99445.44;5035208;28;20045;-35
2023/02/23 01:51:41;;;;;;;9.65;2.83;;;;;;;-11.36;61.18;99420.16;5061320;28;20315;-35
2023/02/23 01:54:15;;;;;;;10.80;4.07;;;;;;;-11.15;61.48;99453.78;5061037;28;20176;-36
2023/02/23 01:56:44;;;;;;;11.32;3.35;;;;;;;-11.10;61.34;99459.03;5076450;28;20047;-35
2023/02/23 01:59:14;;;;;;;10.43;3.50;;;;;;;-11.09;61.49;99460.75;5050160;28;20043;-35
2023/02/23 02:01:41;;;;;;;8.48;3.97;;;;;;;-11.09;61.55;99458.25;5050143;28;20047;-35
2023/02/23 02:04:08;;;;;;;10.13;3.55;;;;;;;-11.05;61.24;99462.59;5051598;28;20051;-36
2023/02/23 02:06:35;;;;;;;8.20;3.70;;;;;;;-11.07;61.70;99470.06;5050145;28;20040;-35
2023/02/23 02:09:15;;;;;;;8.60;3.60;;;;;;;-11.24;61.71;99434.13;5066717;28;20139;-34
2023/02/23 02:11:45;;;;;;;12.02;3.75;;;;;;;-11.02;61.17;99475.28;5067384;28;20036;-34
2023/02/23 02:14:17;;;;;;;12.65;3.53;;;;;;;-11.04;61.68;99477.72;5070394;28;20043;-35
2023/02/23 02:16:46;;;;;;;11.38;4.00;;;;;;;-11.07;61.33;99477.59;5033696;28;20476;-35
2023/02/23 02:19:32;;;;;;;10.32;3.80;;;;;;;-11.12;61.08;99476.50;5066418;28;20841;-35
2023/02/23 02:22:11;;;;;;;11.57;3.78;;;;;;;-11.15;61.34;99481.41;5067232;28;20120;-35
2023/02/23 02:24:40;;;;;;;10.18;3.55;;;;;;;-11.16;61.78;99490.56;5034965;28;20039;-34
2023/02/23 02:27:12;;;;;;;9.75;3.95;;;;;;;-11.17;61.60;99477.94;5063748;28;20074;-35
2023/02/23 02:30:02;;;;;;;12.05;3.78;;;;;;;-11.18;61.49;99488.75;5033352;28;20078;-35
2023/02/23 02:32:38;;;;;;;11.13;3.97;;;;;;;-11.23;61.54;99488.53;5066426;28;20499;-36
2023/02/23 02:35:17;;;;;;;14.07;4.28;;;;;;;-11.26;61.30;99488.41;5073271;28;20456;-35
2023/02/23 02:38:04;;;;;;;12.18;3.30;;;;;;;-11.29;61.61;99490.75;5066246;28;20033;-33
2023/02/23 02:40:52;;;;;;;9.65;3.15;;;;;;;-11.37;61.89;99489.53;5066648;28;20028;-35
2023/02/23 02:43:45;;;;;;;11.93;3.97;;;;;;;-11.48;61.85;99495.66;5060000;28;20482;-35
2023/02/23 02:46:25;;;;;;;7.93;3.78;;;;;;;-11.52;62.21;99502.97;5046763;28;20068;-35
2023/02/23 02:49:13;;;;;;;6.13;3.00;;;;;;;-11.54;61.51;99502.88;5080228;28;20095;-35
2023/02/23 02:51:51;;;;;;;6.18;3.50;;;;;;;-11.71;61.95;99471.97;5066750;28;20123;-35
2023/02/23 02:54:36;;;;;;;14.88;3.90;;;;;;;-11.56;62.08;99503.63;5072969;28;20676;-36
2023/02/23 02:57:03;;;;;;;9.95;3.55;;;;;;;-11.59;62.14;99501.81;5087201;28;20044;-34
2023/02/23 04:18:00;;;;;;;7.38;2.53;;;;;;;-12.60;63.83;99503.28;5066030;28;20036;-35
2023/02/23 04:20:26;;;;;;;13.02;4.80;;;;;;;-12.45;64.40;99533.28;5035264;28;20040;-35
2023/02/23 04:22:52;;;;;;;6.57;3.72;;;;;;;-12.48;64.44;99544.00;5070498;28;20048;-35
2023/02/23 04:25:21;;;;;;;9.85;4.60;;;;;;;-12.43;64.62;99538.38;5069344;28;20059;-35
2023/02/23 04:27:50;;;;;;;13.00;4.55;;;;;;;-12.42;64.65;99540.97;5067337;28;20051;-36
2023/02/23 04:30:17;;;;;;;15.43;5.35;;;;;;;-12.45;64.24;99551.66;5061164;28;20037;-35
2023/02/23 04:32:44;;;;;;;9.95;3.33;;;;;;;-12.44;64.72;99552.53;5067738;28;20055;-35
2023/02/23 04:35:12;;;;;;;14.27;4.68;;;;;;;-12.47;64.27;99550.75;5066886;28;20055;-36
2023/02/23 04:37:38;;;;;;;13.95;3.78;;;;;;;-12.47;64.46;99553.25;5069982;28;20542;-36
2023/02/23 04:40:05;;;;;;;11.38;3.63;;;;;;;-12.43;64.18;99558.41;5065034;28;20048;-37
2023/02/23 04:42:31;;;;;;;7.22;3.67;;;;;;;-12.48;64.50;99551.53;5082661;28;20055;-35
2023/02/23 04:44:58;;;;;;;13.88;4.30;;;;;;;-12.67;64.76;99528.78;5068953;28;20041;-34
2023/02/23 04:47:24;;;;;;;12.57;4.32;;;;;;;-12.46;64.76;99557.47;5063994;28;20059;-35
2023/02/23 04:49:49;;;;;;;13.30;3.85;;;;;;;-12.58;64.39;99525.91;5069048;28;20040;-35
2023/02/23 04:52:15;;;;;;;9.32;3.97;;;;;;;-12.41;64.51;99559.34;5075964;28;20055;-35
2023/02/23 04:54:42;;;;;;;11.13;4.10;;;;;;;-12.43;64.32;99551.75;5069079;28;20044;-38
2023/02/23 04:57:08;;;;;;;8.20;3.35;;;;;;;-12.57;64.59;99525.13;5052153;28;20051;-37
2023/02/23 04:59:34;;;;;;;10.27;4.43;;;;;;;-12.38;64.36;99560.38;5069400;28;20040;-41
2023/02/23 05:02:00;;;;;;;17.40;5.00;;;;;;;-12.37;64.86;99557.09;5069361;28;20052;-35
2023/02/23 05:04:27;;;;;;;9.27;3.33;;;;;;;-12.53;64.81;99520.38;5068828;28;20080;-34
2023/02/23 05:06:53;;;;;;;15.85;4.53;;;;;;;-12.30;64.52;99560.78;5068044;28;20074;-35
2023/02/23 05:09:19;;;;;;;9.70;3.75;;;;;;;-12.25;64.73;99569.41;5050492;28;20431;-35
2023/02/23 05:11:45;;;;;;;9.23;3.65;;;;;;;-12.24;64.67;99561.97;5077259;28;20048;-36
2023/02/23 05:14:11;;;;;;;17.30;5.65;;;;;;;-12.25;64.76;99556.91;5069796;28;20405;-35
2023/02/23 05:16:38;;;;;;;10.65;4.40;;;;;;;-12.21;64.59;99569.66;5085495;28;20047;-36
2023/02/23 05:19:04;;;;;;;12.25;3.83;;;;;;;-12.37;64.70;99534.56;5061436;28;20068;-35
2023/02/23 05:21:31;;;;;;;14.57;4.45;;;;;;;-12.15;64.31;99571.63;5052414;28;20045;-34
2023/02/23 05:23:57;;;;;;;9.73;3.22;;;;;;;-12.17;64.10;99573.19;5048614;28;20045;-36
2023/02/23 05:26:23;;;;;;;13.77;5.05;;;;;;;-12.18;64.78;99577.31;5051708;28;20075;-35
2023/02/23 05:28:49;;;;;;;14.00;5.43;;;;;;;-12.15;63.91;99574.13;5068196;28;20486;-36
2023/02/23 05:31:15;;;;;;;11.40;3.92;;;;;;;-12.13;63.85;99570.91;5085519;28;20132;-36
2023/02/23 05:33:41;;;;;;;12.02;4.72;;;;;;;-12.14;64.07;99583.38;5074352;28;20096;-35
2023/02/23 05:36:09;;;;;;;8.70;4.00;;;;;;;-12.08;63.59;99584.53;5088970;28;20043;-34
2023/02/23 05:38:35;;;;;;;9.00;3.38;;;;;;;-12.05;63.53;99583.84;5087079;28;20131;-44
2023/02/23 05:41:06;;;;;;;14.68;5.28;;;;;;;-11.97;63.42;99577.59;5074095;28;20040;-35
2023/02/23 05:43:31;;;;;;;13.70;4.68;;;;;;;-11.74;63.24;99581.28;5074417;28;20706;-36
2023/02/23 05:45:58;;;;;;;9.45;4.10;;;;;;;-11.42;62.84;99583.75;5033457;28;20130;-37
2023/02/23 05:48:24;;;;;;;10.73;4.35;;;;;;;-10.87;62.18;99591.47;5051017;28;20604;-36
2023/02/23 05:50:49;;;;;;;7.13;3.30;;;;;;;-10.53;61.91;99556.28;5068313;28;20044;-35
2023/02/23 05:53:15;;;;;;;11.27;4.55;;;;;;;-10.16;61.23;99586.47;5072782;28;20044;-37
2023/02/23 05:55:41;;;;;;;14.13;4.43;;;;;;;-9.99;61.00;99588.91;5068224;28;20490;-37
2023/02/23 05:58:07;;;;;;;10.48;3.95;;;;;;;-9.58;59.25;99587.38;5067532;28;20131;-36
2023/02/23 06:00:33;;;;;;;7.75;3.20;;;;;;;-9.17;59.17;99589.13;5048151;28;20052;-36
2023/02/23 06:02:59;;;;;;;9.25;3.92;;;;;;;-9.11;58.62;99600.31;5069582;28;20192;-36
2023/02/23 06:05:25;;;;;;;9.43;4.18;;;;;;;-8.34;57.39;99587.47;5042420;28;20040;-37
2023/02/23 06:07:51;;;;;;;4.70;2.22;;;;;;;-7.98;56.26;99560.22;5066656;28;20045;-36
2023/02/23 06:10:17;;;;;;;10.48;4.20;;;;;;;-7.17;54.99;99599.25;5066225;28;20110;-36
2023/02/23 06:12:44;;;;;;;10.65;4.60;;;;;;;-6.73;53.99;99570.44;5067066;28;20054;-37
2023/02/23 06:15:10;;;;;;;14.10;4.10;;;;;;;-5.88;52.55;99597.50;5049838;28;20055;-37
2023/02/23 06:17:36;;;;;;;13.45;4.45;;;;;;;-5.48;51.78;99594.38;5065775;28;20033;-36
2023/02/23 06:20:03;;;;;;;11.85;4.38;;;;;;;-5.02;50.60;99597.34;5070143;28;20500;-35
2023/02/23 06:22:30;;;;;;;12.60;4.70;;;;;;;-4.33;50.18;99594.81;5048883;28;20140;-36
2023/02/23 06:24:56;;;;;;;12.52;4.43;;;;;;;-3.71;48.81;99597.88;5069473;28;20119;-36
2023/02/23 06:27:22;;;;;;;9.25;4.05;;;;;;;-3.60;47.62;99540.53;5068104;28;20423;-39
2023/02/23 06:29:48;;;;;;;11.40;4.38;;;;;;;-3.12;46.38;99594.88;5064750;28;20056;-37
2023/02/23 06:32:13;;;;;;;15.20;5.07;;;;;;;-2.62;46.16;99603.38;5060042;28;20570;-38
2023/02/23 06:34:45;;;;;;;10.93;4.18;;;;;;;-2.39;44.85;99598.66;5049480;28;20499;-37
2023/02/23 06:37:11;;;;;;;11.00;3.95;;;;;;;-1.96;43.88;99601.88;5063268;28;20530;-38
2023/02/23 06:39:37;;;;;;;13.57;5.43;;;;;;;-1.48;43.32;99601.66;5063486;28;20044;-36
2023/02/23 06:42:03;;;;;;;13.98;5.65;;;;;;;-1.16;42.69;99602.03;5067182;28;20466;-37
2023/02/23 06:44:29;;;;;;;10.35;5.20;;;;;;;-0.75;42.12;99597.34;5035381;28;20131;-39
2023/02/23 06:46:55;;;;;;;8.18;4.25;;;;;;;-0.35;40.93;99593.44;5068880;28;20032;-36
2023/02/23 06:49:21;;;;;;;8.27;4.28;;;;;;;-0.25;40.08;99600.31;5094842;28;20455;-37
2023/02/23 06:51:48;;;;;;;12.45;5.75;;;;;;;0.12;39.84;99609.09;5069717;28;20048;-38
2023/02/23 06:54:15;;;;;;;11.60;5.68;;;;;;;0.19;39.10;99560.59;5043345;28;20085;-36
2023/02/23 06:56:40;;;;;;;10.30;5.00;;;;;;;0.61;39.00;99559.91;5065658;28;20472;-37
2023/02/23 06:59:06;;;;;;;11.95;4.95;;;;;;;1.34;38.12;99613.00;5069207;28;20040;-37
2023/02/23 07:01:32;;;;;;;10.50;4.75;;;;;;;1.63;37.76;99578.84;5063762;28;20052;-37
2023/02/23 07:03:58;;;;;;;10.65;4.93;;;;;;;2.43;37.04;99612.91;5067634;28;20458;-38
2023/02/23 07:06:24;;;;;;;16.08;4.88;;;;;;;2.65;36.16;99581.19;5068371;28;20105;-36
2023/02/23 07:08:50;;;;;;;14.00;5.05;;;;;;;2.79;35.71;99609.38;5066689;28;20080;-38
2023/02/23 07:11:18;;;;;;;12.63;5.30;;;;;;;3.15;34.98;99621.16;5077628;28;20097;-37
2023/02/23 07:13:44;;;;;;;10.63;4.65;;;;;;;3.67;34.59;99613.97;5050427;28;20036;-38
2023/02/23 07:16:10;;;;;;;12.02;5.65;;;;;;;4.03;33.64;99607.69;5065040;28;20486;-37
2023/02/23 07:18:36;;;;;;;11.70;5.13;;;;;;;4.11;33.21;99609.31;5065733;28;20051;-36
2023/02/23 07:21:02;;;;;;;8.07;4.43;;;;;;;4.49;32.94;99614.06;5066992;28;20045;-36
2023/02/23 07:23:28;;;;;;;8.48;4.75;;;;;;;4.63;32.22;99603.59;5065055;28;20040;-38
2023/02/23 07:25:55;;;;;;;10.50;5.50;;;;;;;5.13;31.62;99599.53;5024452;28;20098;-37
2023/02/23 07:28:21;;;;;;;11.60;4.68;;;;;;;5.52;31.27;99614.41;5049835;28;20047;-37
2023/02/23 07:30:48;;;;;;;9.05;4.97;;;;;;;5.47;30.86;99617.06;5066336;28;20045;-36
2023/02/23 07:33:15;;;;;;;9.73;4.85;;;;;;;5.75;31.13;99617.50;5065126;28;20123;-37
2023/02/23 07:35:41;;;;;;;10.80;4.80;;;;;;;6.24;30.48;99625.28;5067790;28;20041;-37
2023/02/23 07:38:08;;;;;;;10.50;5.40;;;;;;;6.57;29.91;99629.00;5063063;28;20126;-38
2023/02/23 07:40:34;;;;;;;12.63;5.60;;;;;;;6.93;29.25;99622.22;5065086;28;22037;-38
2023/02/23 07:43:00;;;;;;;10.73;5.45;;;;;;;7.33;28.68;99621.41;5065815;28;20068;-38
2023/02/23 07:45:26;;;;;;;10.52;5.40;;;;;;;7.64;28.40;99607.69;5063824;28;20044;-37
2023/02/23 07:47:51;;;;;;;12.85;5.35;;;;;;;7.93;27.72;99624.28;5066276;28;20052;-37
2023/02/23 07:50:17;;;;;;;8.52;4.70;;;;;;;7.71;27.65;99628.25;5063270;28;20036;-38
2023/02/23 07:52:43;;;;;;;7.63;4.45;;;;;;;7.44;27.69;99628.00;5072175;28;20772;-37
2023/02/23 07:55:10;;;;;;;11.10;5.47;;;;;;;7.31;27.50;99628.31;5066022;28;20059;-37
2023/02/23 07:57:37;;;;;;;8.50;5.07;;;;;;;7.45;27.22;99621.09;5046494;28;20040;-37
2023/02/23 08:00:04;;;;;;;9.05;5.40;;;;;;;7.34;27.32;99617.91;5062279;28;20048;-38
2023/02/23 08:02:39;;;;;;;9.43;5.18;;;;;;;7.42;27.23;99622.03;5066872;28;20051;-37
2023/02/23 08:05:06;;;;;;;8.07;4.53;;;;;;;6.84;27.00;99575.91;5045105;28;20062;-38
2023/02/23 08:07:32;;;;;;;10.85;5.20;;;;;;;6.28;27.34;99556.41;5057492;28;20040;-36
2023/02/23 08:09:58;;;;;;;10.30;5.00;;;;;;;7.13;27.16;99614.06;5074800;28;20143;-37
2023/02/23 08:12:25;;;;;;;8.88;5.60;;;;;;;7.88;26.63;99613.19;5065525;28;20040;-39
2023/02/23 08:14:52;;;;;;;10.43;5.68;;;;;;;8.24;26.22;99606.22;5046049;28;20117;-38
2023/02/23 08:17:18;;;;;;;8.50;5.05;;;;;;;8.38;25.88;99622.28;5062495;28;20044;-37
2023/02/23 08:19:44;;;;;;;11.73;5.47;;;;;;;8.79;25.43;99616.81;5061656;28;20531;-39
2023/02/23 08:22:10;;;;;;;8.20;5.03;;;;;;;8.52;25.31;99586.50;5067509;28;20131;-37
2023/02/23 08:24:36;;;;;;;12.52;5.85;;;;;;;8.88;24.88;99632.13;5076400;28;20406;-36
2023/02/23 08:27:03;;;;;;;8.98;5.38;;;;;;;8.77;24.97;99623.78;5077199;28;20040;-37
2023/02/23 08:29:29;;;;;;;11.00;5.53;;;;;;;8.90;24.99;99619.09;5085804;28;20037;-38
2023/02/23 08:31:56;;;;;;;13.25;5.35;;;;;;;8.93;24.89;99621.63;5051660;28;20046;-37
2023/02/23 08:34:22;;;;;;;9.50;5.00;;;;;;;9.31;24.81;99623.09;5060065;28;20455;-36
2023/02/23 08:36:48;;;;;;;10.25;5.38;;;;;;;9.16;24.65;99616.59;5070310;28;20040;-36
2023/02/23 08:39:15;;;;;;;9.20;5.13;;;;;;;9.19;24.32;99593.19;5068554;28;20043;-38
2023/02/23 08:41:41;;;;;;;9.73;5.22;;;;;;;9.48;23.94;99620.81;5036246;28;20087;-35
2023/02/23 08:44:07;;;;;;;9.05;5.75;;;;;;;9.61;23.85;99611.78;5088601;28;20067;-37
2023/02/23 08:46:33;;;;;;;7.88;5.30;;;;;;;9.56;24.25;99626.63;5088840;28;20151;-38
2023/02/23 08:48:59;;;;;;;11.95;5.40;;;;;;;9.44;24.00;99608.00;5071752;28;20102;-36
2023/02/23 08:51:25;;;;;;;8.85;5.57;;;;;;;9.64;24.52;99623.78;5052874;28;20047;-38
2023/02/23 08:53:51;;;;;;;10.43;5.47;;;;;;;9.96;23.59;99628.78;5069655;28;20036;-37
2023/02/23 08:56:17;;;;;;;8.82;5.53;;;;;;;9.58;23.65;99623.97;5087292;28;20109;-37
2023/02/23 08:58:43;;;;;;;9.25;5.28;;;;;;;9.21;24.02;99570.63;5068787;28;20511;-39
2023/02/23 09:01:17;;;;;;;8.50;5.40;;;;;;;9.95;23.59;99621.03;5068477;28;20067;-37
2023/02/23 09:03:43;;;;;;;10.63;5.35;;;;;;;9.77;23.07;99622.50;5066116;28;20163;-37
2023/02/23 09:06:12;;;;;;;8.95;5.28;;;;;;;9.20;24.02;99620.81;5066756;28;20116;-39
2023/02/23 09:08:38;;;;;;;9.48;5.18;;;;;;;9.45;24.04;99620.06;5061863;28;20052;-36
2023/02/23 09:11:04;;;;;;;10.70;5.85;;;;;;;10.07;23.28;99623.25;5072957;28;20510;-37
2023/02/23 09:13:30;;;;;;;12.68;6.18;;;;;;;10.51;22.91;99612.22;5069987;28;20040;-37
2023/02/23 09:15:56;;;;;;;9.18;5.60;;;;;;;11.11;22.42;99620.44;5082261;28;20132;-39
2023/02/23 09:18:28;;;;;;;9.27;5.55;;;;;;;11.66;22.46;99611.38;5069655;28;20041;-37
2023/02/23 09:20:54;;;;;;;9.25;5.07;;;;;;;11.87;21.75;99616.59;5081729;28;20149;-39
2023/02/23 09:23:20;;;;;;;9.00;5.47;;;;;;;11.92;21.52;99584.28;5069355;28;20124;-40
2023/02/23 09:25:46;;;;;;;12.82;5.78;;;;;;;12.05;21.57;99606.31;5068470;28;20064;-37
2023/02/23 09:28:14;;;;;;;11.07;5.72;;;;;;;12.13;21.53;99601.66;5068195;28;20040;-37
2023/02/23 09:30:42;;;;;;;9.82;5.35;;;;;;;12.13;21.42;99596.44;5068457;28;20032;-38
2023/02/23 09:33:08;;;;;;;8.70;5.70;;;;;;;12.21;21.32;99592.56;5062052;28;20046;-39
2023/02/23 09:35:35;;;;;;;11.38;6.10;;;;;;;12.44;21.36;99575.97;5071450;28;20051;-36
2023/02/23 09:38:05;;;;;;;10.18;6.20;;;;;;;13.05;20.88;99597.53;5052958;28;20131;-37
2023/02/23 09:40:54;;;;;;;8.70;5.43;;;;;;;13.26;20.42;99598.34;5054651;28;20045;-36
2023/02/23 09:43:43;;;;;;;11.75;5.35;;;;;;;13.22;20.52;99598.56;5066823;28;20051;-48
2023/02/23 09:46:48;;;;;;;;;;;;;;;13.41;20.38;99602.00;5064764;28;20052;-36
2023/02/23 09:49:19;;;;;;;10.73;5.03;;;;;;;12.90;20.41;99598.22;5008334;28;19964;-38
2023/02/23 09:51:50;;;;;;;9.05;5.00;;;;;;;13.14;20.08;99589.31;4990139;28;20052;-38
2023/02/23 09:54:17;;;;;;;7.90;5.05;;;;;;;13.02;19.96;99568.13;5025385;28;20440;-36
2023/02/23 09:56:46;;;;;;;7.43;5.03;;;;;;;13.04;20.14;99587.16;5009848;28;20045;-38
2023/02/23 09:59:17;;;;;;;8.50;5.22;;;;;;;13.00;19.83;99590.84;5024147;28;20041;-38
2023/02/23 10:01:52;;;;;;;10.00;5.47;;;;;;;12.58;19.76;99583.16;5006365;28;20045;-38
2023/02/23 10:04:38;;;;;;;11.48;6.60;;;;;;;12.82;19.77;99586.47;4988886;28;20037;-37
2023/02/23 10:07:12;;;;;;;12.85;5.88;;;;;;;13.40;19.68;99587.25;4974175;28;20423;-39
2023/02/23 10:09:59;;;;;;;14.02;5.75;;;;;;;13.73;19.32;99585.63;5010508;28;20054;-37
2023/02/23 10:13:12;;;;;;;11.10;5.95;;;;;;;13.91;18.96;99578.66;5009739;28;20041;-39
2023/02/23 10:15:47;;;;;;;8.77;6.15;;;;;;;13.98;18.94;99580.03;5009440;28;20108;-39
2023/02/23 10:18:35;;;;;;;9.43;5.85;;;;;;;13.61;19.03;99577.56;5026408;28;20033;-37
2023/02/23 10:21:11;;;;;;;9.75;5.88;;;;;;;10.95;20.33;99586.34;5073254;28;20051;-38
2023/02/23 10:23:37;;;;;;;10.77;4.90;;;;;;;8.60;21.94;99588.88;5087511;28;20047;-38
2023/02/23 10:26:07;;;;;;;7.28;4.72;;;;;;;6.49;22.79;99557.72;5087577;28;20082;-38
2023/02/23 10:28:35;;;;;;;8.60;4.45;;;;;;;4.91;24.81;99530.28;5087621;28;20545;-37
2023/02/23 10:31:14;;;;;;;9.93;5.30;;;;;;;4.21;25.23;99586.91;5056904;28;20044;-39
2023/02/23 10:33:41;;;;;;;8.70;4.82;;;;;;;3.46;26.41;99591.84;5067098;28;20037;-39
2023/02/23 10:36:14;;;;;;;7.80;4.55;;;;;;;2.94;27.42;99587.03;5068464;28;20069;-36
2023/02/23 10:38:40;;;;;;;10.30;5.28;;;;;;;2.29;28.27;99527.47;5068145;28;20123;-36
2023/02/23 10:41:06;;;;;;;9.40;4.97;;;;;;;2.16;28.39;99552.28;5069216;28;20085;-38
2023/02/23 10:43:32;;;;;;;8.70;4.38;;;;;;;2.87;28.32;99580.25;5068359;28;20048;-37
2023/02/23 10:45:58;;;;;;;10.93;5.15;;;;;;;2.85;28.54;99579.38;5077681;28;20777;-39
2023/02/23 10:48:28;;;;;;;10.00;5.03;;;;;;;2.58;29.30;99576.09;5087264;28;20043;-39
2023/02/23 10:50:54;;;;;;;;;;;;;;;4.50;27.64;99573.72;5087467;28;20040;-37
2023/02/23 10:53:26;;;;;;;8.18;4.55;;;;;;;6.67;25.99;99575.41;5114206;27;19983;-37
2023/02/23 10:56:12;;;;;;;7.80;4.60;;;;;;;8.46;24.22;99571.97;5100606;28;20047;-37
2023/02/23 10:58:45;;;;;;;8.88;5.07;;;;;;;9.68;23.19;99584.69;5068135;28;20056;-36
2023/02/23 11:01:13;;;;;;;8.13;4.65;;;;;;;10.24;22.63;99568.16;5066929;28;20036;-37
2023/02/23 11:03:42;;;;;;;6.60;4.05;;;;;;;10.74;22.05;99575.00;5066514;28;20036;-39
2023/02/23 11:06:35;;;;;;;7.32;4.20;;;;;;;11.16;21.61;99562.13;5066686;28;20047;-43
2023/02/23 11:09:30;;;;;;;7.90;4.63;;;;;;;11.84;21.05;99558.53;5060214;28;20072;-37
2023/02/23 11:11:56;;;;;;;9.68;4.95;;;;;;;12.68;20.84;99558.38;5066375;28;20369;-37
2023/02/23 11:14:24;;;;;;;8.18;4.85;;;;;;;13.00;20.18;99536.88;5070099;28;20456;-38
2023/02/23 11:16:50;;;;;;;7.57;5.05;;;;;;;13.49;19.65;99564.16;5072222;28;20040;-38
2023/02/23 11:19:23;;;;;;;7.07;4.85;;;;;;;13.96;19.69;99563.59;5067888;28;20047;-37
2023/02/23 11:21:51;;;;;;;9.43;4.90;;;;;;;14.38;19.09;99558.00;5049818;28;20052;-38
2023/02/23 11:24:31;;;;;;;10.02;5.32;;;;;;;14.77;19.04;99548.03;5067461;28;20094;-37
2023/02/23 11:27:02;;;;;;;9.35;5.20;;;;;;;15.15;19.01;99564.28;5066626;28;20037;-39
2023/02/23 11:29:37;;;;;;;7.88;4.72;;;;;;;15.02;18.25;99557.19;5100406;28;20037;-37
2023/02/23 11:32:12;;;;;;;8.95;5.03;;;;;;;14.91;17.97;99567.41;5080283;28;20724;-38
2023/02/23 11:34:42;;;;;;;9.85;5.20;;;;;;;14.72;17.90;99564.91;5068415;28;20052;-37
2023/02/23 11:37:18;;;;;;;7.63;4.95;;;;;;;15.03;17.89;99561.47;5067708;28;20040;-36
2023/02/23 11:39:51;;;;;;;12.40;4.97;;;;;;;15.46;17.68;99559.94;5067584;28;20048;-38
2023/02/23 11:42:21;;;;;;;9.10;5.40;;;;;;;15.71;17.43;99551.56;5082159;28;20072;-38
2023/02/23 11:44:51;;;;;;;9.13;6.03;;;;;;;15.76;17.64;99528.56;5086337;28;20051;-38
2023/02/23 11:47:20;;;;;;;9.15;6.07;;;;;;;15.99;17.60;99549.06;5072243;28;20045;-37
2023/02/23 11:49:47;;;;;;;7.63;5.60;;;;;;;16.17;17.46;99555.84;5067588;28;20043;-36
2023/02/23 11:52:17;;;;;;;7.95;5.00;;;;;;;16.06;17.46;99550.38;5051006;28;20033;-39
2023/02/23 11:54:51;;;;;;;8.65;5.00;;;;;;;15.66;16.85;99544.81;5069987;28;20044;-40
2023/02/23 11:57:26;;;;;;;8.02;5.22;;;;;;;15.41;17.16;99541.03;5071541;28;20036;-38
2023/02/23 11:59:52;;;;;;;8.85;5.50;;;;;;;15.45;17.14;99517.19;5071194;28;20051;-38
2023/02/23 12:02:21;;;;;;;7.60;5.25;;;;;;;15.64;17.30;99535.38;5082109;28;20043;-38
2023/02/23 12:04:51;;;;;;;8.95;5.20;;;;;;;15.55;17.16;99539.34;5090098;28;20044;-36
2023/02/23 12:07:41;;;;;;;8.18;5.43;;;;;;;14.39;17.08;99530.91;5091462;28;20074;-38
2023/02/23 12:10:14;;;;;;;8.05;5.70;;;;;;;13.96;17.50;99532.22;5090014;28;20055;-38
2023/02/23 12:12:45;;;;;;;8.27;5.15;;;;;;;12.85;18.11;99532.38;5076201;28;20789;-37
2023/02/23 12:15:23;;;;;;;6.97;4.07;;;;;;;12.22;18.13;99530.88;5070871;28;20044;-37
2023/02/23 12:17:57;;;;;;;9.10;5.35;;;;;;;11.81;19.23;99510.03;5069292;28;20098;-37
2023/02/23 12:20:28;;;;;;;8.70;4.60;;;;;;;11.44;18.77;99513.28;5069450;28;20041;-36
2023/02/23 12:22:58;;;;;;;9.15;4.97;;;;;;;11.21;19.44;99533.31;5071075;28;20589;-38
2023/02/23 12:25:39;;;;;;;8.55;5.15;;;;;;;10.46;19.61;99517.13;5089885;28;20039;-39
2023/02/23 12:28:31;;;;;;;7.88;4.50;;;;;;;9.92;20.21;99536.31;5091133;28;20043;-38
2023/02/23 12:31:16;;;;;;;10.38;5.05;;;;;;;9.14;20.84;99542.34;5083387;28;20072;-37
2023/02/23 12:33:45;;;;;;;7.78;4.65;;;;;;;9.55;21.12;99535.84;5071112;28;20127;-38
2023/02/23 12:36:14;;;;;;;;;;;;;;;10.39;20.55;99541.63;5086559;28;20046;-37
2023/02/23 12:39:29;;;;;;;8.55;4.47;;;;;;;10.96;20.08;99549.03;5103036;28;19923;-39
2023/02/23 12:42:13;;;;;;;6.97;3.90;;;;;;;9.34;21.07;99556.38;5008220;28;20044;-37
2023/02/23 12:45:00;;;;;;;7.32;4.25;;;;;;;7.82;22.42;99549.47;5020159;28;20096;-37
2023/02/23 12:47:31;;;;;;;8.75;3.90;;;;;;;6.81;22.46;99553.56;4995443;28;20132;-38
2023/02/23 12:50:11;;;;;;;7.35;3.95;;;;;;;5.86;23.81;99547.69;5027933;28;20501;-38
2023/02/23 12:52:46;;;;;;;6.47;3.85;;;;;;;5.45;24.22;99559.50;5011056;28;20052;-36
2023/02/23 12:55:13;;;;;;;8.70;3.95;;;;;;;4.73;25.29;99565.72;5011005;28;20037;-37
2023/02/23 12:57:48;;;;;;;7.38;3.80;;;;;;;4.55;25.93;99556.50;5011354;28;20728;-37
2023/02/23 13:00:33;;;;;;;8.43;4.15;;;;;;;4.65;25.76;99558.09;5027420;28;20053;-38